sensor_id;sensor_type;location;lat;lon;timestamp;pressure;altitude;pressure_sealevel;temperature;humidity
60087;BME280;45960;53.630;55.972;2024-01-07T00:00:59;99460.25;;;-7.56;64.58
60087;BME280;45960;53.630;55.972;2024-01-07T00:02:00;99477.56;;;-7.57;64.74
60087;BME280;45960;53.630;55.972;2024-01-07T00:03:01;99477.56;;;-7.60;64.81
60087;BME280;45960;53.630;55.972;2024-01-07T00:04:02;99467.19;;;-7.60;65.13
60087;BME280;45960;53.630;55.972;2024-01-07T00:05:03;99463.72;;;-7.59;64.91
60087;BME280;45960;53.630;55.972;2024-01-07T00:06:04;99418.94;;;-7.84;64.84
60087;BME280;45960;53.630;55.972;2024-01-07T00:07:05;99462.03;;;-7.65;64.94
60087;BME280;45960;53.630;55.972;2024-01-07T00:08:06;99466.38;;;-7.67;64.92
60087;BME280;45960;53.630;55.972;2024-01-07T00:09:07;99452.53;;;-7.70;65.13
60087;BME280;45960;53.630;55.972;2024-01-07T00:10:08;99460.34;;;-7.73;65.19
60087;BME280;45960;53.630;55.972;2024-01-07T00:11:10;99453.44;;;-7.79;65.35
60087;BME280;45960;53.630;55.972;2024-01-07T00:12:11;99443.97;;;-7.88;65.35
60087;BME280;45960;53.630;55.972;2024-01-07T00:13:12;99466.44;;;-7.80;65.40
60087;BME280;45960;53.630;55.972;2024-01-07T00:14:15;99467.28;;;-7.81;65.31
60087;BME280;45960;53.630;55.972;2024-01-07T00:15:16;99465.56;;;-7.81;65.50
60087;BME280;45960;53.630;55.972;2024-01-07T00:16:17;99460.38;;;-7.82;65.60
60087;BME280;45960;53.630;55.972;2024-01-07T00:17:18;99461.25;;;-7.83;65.63
60087;BME280;45960;53.630;55.972;2024-01-07T00:18:19;99462.97;;;-7.82;65.84
60087;BME280;45960;53.630;55.972;2024-01-07T00:19:20;99452.63;;;-7.85;65.66
60087;BME280;45960;53.630;55.972;2024-01-07T00:20:21;99459.50;;;-7.81;65.61
60087;BME280;45960;53.630;55.972;2024-01-07T00:21:23;99461.25;;;-7.80;65.54
60087;BME280;45960;53.630;55.972;2024-01-07T00:22:24;99457.78;;;-7.79;65.53
60087;BME280;45960;53.630;55.972;2024-01-07T00:23:26;99452.59;;;-7.82;65.59
60087;BME280;45960;53.630;55.972;2024-01-07T00:24:27;99466.41;;;-7.74;65.39
60087;BME280;45960;53.630;55.972;2024-01-07T00:25:29;99470.72;;;-7.73;65.34
60087;BME280;45960;53.630;55.972;2024-01-07T00:26:30;99473.31;;;-7.73;65.48
60087;BME280;45960;53.630;55.972;2024-01-07T00:27:31;99475.06;;;-7.75;65.62
60087;BME280;45960;53.630;55.972;2024-01-07T00:28:32;99475.91;;;-7.76;65.63
60087;BME280;45960;53.630;55.972;2024-01-07T00:29:33;99478.53;;;-7.79;65.59
60087;BME280;45960;53.630;55.972;2024-01-07T00:30:36;99469.91;;;-7.84;65.35
60087;BME280;45960;53.630;55.972;2024-01-07T00:31:37;99471.63;;;-7.83;65.44
60087;BME280;45960;53.630;55.972;2024-01-07T00:32:38;99475.06;;;-7.84;65.57
60087;BME280;45960;53.630;55.972;2024-01-07T00:33:39;99465.56;;;-7.81;65.73
60087;BME280;45960;53.630;55.972;2024-01-07T00:34:40;99459.50;;;-7.75;65.63
60087;BME280;45960;53.630;55.972;2024-01-07T00:35:41;99457.75;;;-7.72;65.60
60087;BME280;45960;53.630;55.972;2024-01-07T00:36:41;99457.72;;;-7.70;65.34
60087;BME280;45960;53.630;55.972;2024-01-07T00:37:43;99457.72;;;-7.69;65.51
60087;BME280;45960;53.630;55.972;2024-01-07T00:38:44;99457.75;;;-7.67;65.29
60087;BME280;45960;53.630;55.972;2024-01-07T00:39:47;99458.56;;;-7.65;65.35
60087;BME280;45960;53.630;55.972;2024-01-07T00:40:48;99462.91;;;-7.64;65.21
60087;BME280;45960;53.630;55.972;2024-01-07T00:41:49;99452.53;;;-7.64;65.11
60087;BME280;45960;53.630;55.972;2024-01-07T00:42:50;99453.38;;;-7.65;65.11
60087;BME280;45960;53.630;55.972;2024-01-07T00:43:52;99462.84;;;-7.52;65.32
60087;BME280;45960;53.630;55.972;2024-01-07T00:44:53;99460.25;;;-7.50;65.11
60087;BME280;45960;53.630;55.972;2024-01-07T00:45:54;99461.13;;;-7.53;65.09
60087;BME280;45960;53.630;55.972;2024-01-07T00:46:55;99464.53;;;-7.51;65.15
60087;BME280;45960;53.630;55.972;2024-01-07T00:47:56;99457.69;;;-7.58;65.14
60087;BME280;45960;53.630;55.972;2024-01-07T00:48:57;99462.84;;;-7.52;64.89
60087;BME280;45960;53.630;55.972;2024-01-07T00:49:58;99454.16;;;-7.51;65.03
60087;BME280;45960;53.630;55.972;2024-01-07T00:50:59;99455.91;;;-7.47;64.89
60087;BME280;45960;53.630;55.972;2024-01-07T00:51:59;99457.63;;;-7.49;64.69
60087;BME280;45960;53.630;55.972;2024-01-07T00:53:00;99450.75;;;-7.53;64.72
60087;BME280;45960;53.630;55.972;2024-01-07T00:54:01;99466.31;;;-7.59;64.28
60087;BME280;45960;53.630;55.972;2024-01-07T00:55:04;99461.16;;;-7.65;64.34
60087;BME280;45960;53.630;55.972;2024-01-07T00:56:07;99459.50;;;-7.72;64.36
60087;BME280;45960;53.630;55.972;2024-01-07T00:57:10;99395.72;;;-8.16;64.44
60087;BME280;45960;53.630;55.972;2024-01-07T00:58:13;99451.72;;;-7.75;64.81
60087;BME280;45960;53.630;55.972;2024-01-07T00:59:14;99460.38;;;-7.75;64.61
60087;BME280;45960;53.630;55.972;2024-01-07T01:00:15;99449.16;;;-7.84;64.67
60087;BME280;45960;53.630;55.972;2024-01-07T01:01:16;99455.16;;;-7.76;64.62
60087;BME280;45960;53.630;55.972;2024-01-07T01:02:17;99457.75;;;-7.76;64.62
60087;BME280;45960;53.630;55.972;2024-01-07T01:03:18;99460.34;;;-7.76;64.51
60087;BME280;45960;53.630;55.972;2024-01-07T01:04:19;99455.16;;;-7.76;64.52
60087;BME280;45960;53.630;55.972;2024-01-07T01:05:21;99452.56;;;-7.76;64.39
60087;BME280;45960;53.630;55.972;2024-01-07T01:06:22;99422.44;;;-7.97;64.32
60087;BME280;45960;53.630;55.972;2024-01-07T01:07:23;99455.16;;;-7.76;64.58
60087;BME280;45960;53.630;55.972;2024-01-07T01:08:24;99449.13;;;-7.75;64.60
60087;BME280;45960;53.630;55.972;2024-01-07T01:09:27;99452.56;;;-7.76;64.39
60087;BME280;45960;53.630;55.972;2024-01-07T01:10:28;99452.56;;;-7.76;64.43
60087;BME280;45960;53.630;55.972;2024-01-07T01:11:30;99452.59;;;-7.78;64.33
60087;BME280;45960;53.630;55.972;2024-01-07T01:12:31;99456.06;;;-7.77;64.24
60087;BME280;45960;53.630;55.972;2024-01-07T01:13:31;99457.75;;;-7.76;64.37
60087;BME280;45960;53.630;55.972;2024-01-07T01:14:32;99452.56;;;-7.76;64.46
60087;BME280;45960;53.630;55.972;2024-01-07T01:15:33;99453.44;;;-7.74;64.55
60087;BME280;45960;53.630;55.972;2024-01-07T01:16:34;99450.84;;;-7.74;64.49
60087;BME280;45960;53.630;55.972;2024-01-07T01:17:35;99446.53;;;-7.81;64.32
60087;BME280;45960;53.630;55.972;2024-01-07T01:18:36;99451.72;;;-7.81;64.29
60087;BME280;45960;53.630;55.972;2024-01-07T01:19:37;99457.78;;;-7.82;64.11
60087;BME280;45960;53.630;55.972;2024-01-07T01:20:39;99457.78;;;-7.82;64.17
60087;BME280;45960;53.630;55.972;2024-01-07T01:21:40;99454.31;;;-7.81;63.95
60087;BME280;45960;53.630;55.972;2024-01-07T01:22:41;99457.78;;;-7.79;64.20
60087;BME280;45960;53.630;55.972;2024-01-07T01:23:43;99450.00;;;-7.79;64.01
60087;BME280;45960;53.630;55.972;2024-01-07T01:24:44;99454.34;;;-7.78;64.00
60087;BME280;45960;53.630;55.972;2024-01-07T01:25:46;99452.56;;;-7.76;64.34
60087;BME280;45960;53.630;55.972;2024-01-07T01:26:47;99448.25;;;-7.73;64.22
60087;BME280;45960;53.630;55.972;2024-01-07T01:27:48;99449.09;;;-7.69;64.11
60087;BME280;45960;53.630;55.972;2024-01-07T01:28:49;99448.25;;;-7.73;63.81
60087;BME280;45960;53.630;55.972;2024-01-07T01:29:50;99447.38;;;-7.76;63.88
60087;BME280;45960;53.630;55.972;2024-01-07T01:30:51;99443.06;;;-7.74;63.97
60087;BME280;45960;53.630;55.972;2024-01-07T01:31:52;99454.31;;;-7.75;63.80
60087;BME280;45960;53.630;55.972;2024-01-07T01:32:53;99456.06;;;-7.77;63.99
60087;BME280;45960;53.630;55.972;2024-01-07T01:33:55;99443.97;;;-7.88;64.01
60087;BME280;45960;53.630;55.972;2024-01-07T01:34:55;99457.78;;;-7.82;64.00
60087;BME280;45960;53.630;55.972;2024-01-07T01:35:56;99456.06;;;-7.80;64.17
60087;BME280;45960;53.630;55.972;2024-01-07T01:36:57;99461.22;;;-7.77;64.32
60087;BME280;45960;53.630;55.972;2024-01-07T01:37:58;99466.41;;;-7.74;64.12
60087;BME280;45960;53.630;55.972;2024-01-07T01:38:59;99468.09;;;-7.70;64.16
60087;BME280;45960;53.630;55.972;2024-01-07T01:40:00;99468.09;;;-7.70;63.87
60087;BME280;45960;53.630;55.972;2024-01-07T01:41:01;99467.28;;;-7.72;64.04
60087;BME280;45960;53.630;55.972;2024-01-07T01:42:03;99472.41;;;-7.65;64.16
60087;BME280;45960;53.630;55.972;2024-01-07T01:43:04;99477.56;;;-7.60;64.01
60087;BME280;45960;53.630;55.972;2024-01-07T01:44:05;99479.31;;;-7.62;63.89
60087;BME280;45960;53.630;55.972;2024-01-07T01:45:06;99474.97;;;-7.60;63.67
60087;BME280;45960;53.630;55.972;2024-01-07T01:46:08;99449.97;;;-7.73;63.90
60087;BME280;45960;53.630;55.972;2024-01-07T01:47:10;99465.47;;;-7.62;63.92
60087;BME280;45960;53.630;55.972;2024-01-07T01:48:11;99468.06;;;-7.58;63.81
60087;BME280;45960;53.630;55.972;2024-01-07T01:49:12;99468.94;;;-7.62;63.48
60087;BME280;45960;53.630;55.972;2024-01-07T01:50:13;99412.94;;;-8.00;63.59
60087;BME280;45960;53.630;55.972;2024-01-07T01:51:15;99456.84;;;-7.66;63.87
60087;BME280;45960;53.630;55.972;2024-01-07T01:52:16;99450.81;;;-7.68;63.69
60087;BME280;45960;53.630;55.972;2024-01-07T01:53:18;99461.16;;;-7.65;63.69
60087;BME280;45960;53.630;55.972;2024-01-07T01:54:20;99462.94;;;-7.67;63.97
60087;BME280;45960;53.630;55.972;2024-01-07T01:55:21;99430.13;;;-7.80;63.76
60087;BME280;45960;53.630;55.972;2024-01-07T01:56:22;99467.22;;;-7.63;63.66
60087;BME280;45960;53.630;55.972;2024-01-07T01:57:24;99468.06;;;-7.61;63.69
60087;BME280;45960;53.630;55.972;2024-01-07T01:58:29;99468.94;;;-7.60;63.67
60087;BME280;45960;53.630;55.972;2024-01-07T01:59:31;99432.69;;;-7.70;63.66
60087;BME280;45960;53.630;55.972;2024-01-07T02:00:33;99455.09;;;-7.61;63.63
60087;BME280;45960;53.630;55.972;2024-01-07T02:01:34;99455.97;;;-7.62;63.59
60087;BME280;45960;53.630;55.972;2024-01-07T02:02:35;99468.94;;;-7.60;63.53
60087;BME280;45960;53.630;55.972;2024-01-07T02:03:36;99470.66;;;-7.59;63.50
60087;BME280;45960;53.630;55.972;2024-01-07T02:04:37;99474.09;;;-7.59;63.51
60087;BME280;45960;53.630;55.972;2024-01-07T02:05:38;99483.63;;;-7.58;63.46
60087;BME280;45960;53.630;55.972;2024-01-07T02:06:39;99474.94;;;-7.54;63.42
60087;BME280;45960;53.630;55.972;2024-01-07T02:07:41;99474.94;;;-7.51;63.61
60087;BME280;45960;53.630;55.972;2024-01-07T02:08:42;99480.13;;;-7.54;63.14
60087;BME280;45960;53.630;55.972;2024-01-07T02:09:43;99476.69;;;-7.59;63.48
60087;BME280;45960;53.630;55.972;2024-01-07T02:10:44;99486.19;;;-7.56;63.30
60087;BME280;45960;53.630;55.972;2024-01-07T02:12:03;99481.88;;;-7.59;63.30
60087;BME280;45960;53.630;55.972;2024-01-07T02:13:05;99471.56;;;-7.67;63.20
60087;BME280;45960;53.630;55.972;2024-01-07T02:14:07;99486.22;;;-7.53;63.33
60087;BME280;45960;53.630;55.972;2024-01-07T02:15:08;99489.63;;;-7.51;63.14
60087;BME280;45960;53.630;55.972;2024-01-07T02:16:10;99484.47;;;-7.53;63.11
60087;BME280;45960;53.630;55.972;2024-01-07T02:17:12;99485.34;;;-7.57;63.09
60087;BME280;45960;53.630;55.972;2024-01-07T02:18:13;99478.47;;;-7.64;63.01
60087;BME280;45960;53.630;55.972;2024-01-07T02:19:14;99484.50;;;-7.62;63.10
60087;BME280;45960;53.630;55.972;2024-01-07T02:20:15;99487.09;;;-7.62;63.26
60087;BME280;45960;53.630;55.972;2024-01-07T02:21:16;99494.03;;;-7.64;63.11
60087;BME280;45960;53.630;55.972;2024-01-07T02:22:18;99479.34;;;-7.68;63.22
60087;BME280;45960;53.630;55.972;2024-01-07T02:23:19;99488.88;;;-7.67;63.08
60087;BME280;45960;53.630;55.972;2024-01-07T02:24:20;99486.28;;;-7.67;62.97
60087;BME280;45960;53.630;55.972;2024-01-07T02:25:21;99481.94;;;-7.71;62.90
60087;BME280;45960;53.630;55.972;2024-01-07T02:26:22;99484.53;;;-7.76;62.99
60087;BME280;45960;53.630;55.972;2024-01-07T02:27:25;99476.78;;;-7.77;63.00
60087;BME280;45960;53.630;55.972;2024-01-07T02:28:28;99477.69;;;-7.78;63.15
60087;BME280;45960;53.630;55.972;2024-01-07T02:29:30;99480.25;;;-7.75;62.92
60087;BME280;45960;53.630;55.972;2024-01-07T02:30:31;99474.22;;;-7.83;62.85
60087;BME280;45960;53.630;55.972;2024-01-07T02:31:32;99475.94;;;-7.78;62.78
60087;BME280;45960;53.630;55.972;2024-01-07T02:32:33;99469.88;;;-7.81;62.72
60087;BME280;45960;53.630;55.972;2024-01-07T02:33:36;99478.53;;;-7.82;62.77
60087;BME280;45960;53.630;55.972;2024-01-07T02:34:37;99481.13;;;-7.82;62.96
60087;BME280;45960;53.630;55.972;2024-01-07T02:35:38;99473.34;;;-7.82;62.86
60087;BME280;45960;53.630;55.972;2024-01-07T02:36:39;99480.25;;;-7.81;62.98
60087;BME280;45960;53.630;55.972;2024-01-07T02:37:41;99482.00;;;-7.80;62.83
60087;BME280;45960;53.630;55.972;2024-01-07T02:38:41;99482.84;;;-7.80;62.73
60087;BME280;45960;53.630;55.972;2024-01-07T02:39:42;99482.00;;;-7.83;62.67
60087;BME280;45960;53.630;55.972;2024-01-07T02:40:45;99453.53;;;-7.99;62.96
60087;BME280;45960;53.630;55.972;2024-01-07T02:41:46;99483.75;;;-7.85;62.90
60087;BME280;45960;53.630;55.972;2024-01-07T02:42:47;99480.25;;;-7.84;62.99
60087;BME280;45960;53.630;55.972;2024-01-07T02:43:48;99483.72;;;-7.82;62.78
60087;BME280;45960;53.630;55.972;2024-01-07T02:44:50;99480.25;;;-7.78;62.83
60087;BME280;45960;53.630;55.972;2024-01-07T02:45:50;99478.50;;;-7.76;62.90
60087;BME280;45960;53.630;55.972;2024-01-07T02:46:52;99477.63;;;-7.69;62.90
60087;BME280;45960;53.630;55.972;2024-01-07T02:47:52;99487.13;;;-7.68;62.61
60087;BME280;45960;53.630;55.972;2024-01-07T02:48:53;99469.91;;;-7.78;62.52
60087;BME280;45960;53.630;55.972;2024-01-07T02:49:55;99481.06;;;-7.69;62.71
60087;BME280;45960;53.630;55.972;2024-01-07T02:50:56;99481.94;;;-7.68;62.90
60087;BME280;45960;53.630;55.972;2024-01-07T02:51:57;99488.81;;;-7.58;62.64
60087;BME280;45960;53.630;55.972;2024-01-07T02:52:58;99492.25;;;-7.53;62.63
60087;BME280;45960;53.630;55.972;2024-01-07T02:53:58;99490.50;;;-7.48;62.69
60087;BME280;45960;53.630;55.972;2024-01-07T02:54:59;99489.59;;;-7.40;62.52
60087;BME280;45960;53.630;55.972;2024-01-07T02:56:02;99487.00;;;-7.39;62.40
60087;BME280;45960;53.630;55.972;2024-01-07T02:57:03;99491.31;;;-7.38;62.51
60087;BME280;45960;53.630;55.972;2024-01-07T02:58:04;99494.78;;;-7.39;62.37
60087;BME280;45960;53.630;55.972;2024-01-07T02:59:05;99482.69;;;-7.41;62.44
60087;BME280;45960;53.630;55.972;2024-01-07T03:00:07;99477.53;;;-7.49;62.59
60087;BME280;45960;53.630;55.972;2024-01-07T03:01:09;99455.97;;;-7.62;62.32
60087;BME280;45960;53.630;55.972;2024-01-07T03:02:10;99478.41;;;-7.52;62.07
60087;BME280;45960;53.630;55.972;2024-01-07T03:03:11;99466.31;;;-7.56;62.30
60087;BME280;45960;53.630;55.972;2024-01-07T03:04:15;99464.59;;;-7.60;62.29
60087;BME280;45960;53.630;55.972;2024-01-07T03:05:16;99471.53;;;-7.62;62.37
60087;BME280;45960;53.630;55.972;2024-01-07T03:06:17;99468.09;;;-7.64;62.17
60087;BME280;45960;53.630;55.972;2024-01-07T03:07:18;99465.50;;;-7.66;62.13
60087;BME280;45960;53.630;55.972;2024-01-07T03:08:19;99468.13;;;-7.67;62.23
60087;BME280;45960;53.630;55.972;2024-01-07T03:09:20;99457.75;;;-7.76;62.13
60087;BME280;45960;53.630;55.972;2024-01-07T03:10:21;99466.38;;;-7.71;62.42
60087;BME280;45960;53.630;55.972;2024-01-07T03:11:22;99468.09;;;-7.69;62.46
60087;BME280;45960;53.630;55.972;2024-01-07T03:12:23;99464.66;;;-7.69;62.28
60087;BME280;45960;53.630;55.972;2024-01-07T03:13:24;99461.19;;;-7.68;62.42
60087;BME280;45960;53.630;55.972;2024-01-07T03:14:25;99441.38;;;-7.78;62.32
60087;BME280;45960;53.630;55.972;2024-01-07T03:15:27;99454.28;;;-7.69;62.21
60087;BME280;45960;53.630;55.972;2024-01-07T03:16:28;99456.00;;;-7.68;62.33
60087;BME280;45960;53.630;55.972;2024-01-07T03:17:29;99458.63;;;-7.73;62.52
60087;BME280;45960;53.630;55.972;2024-01-07T03:18:30;99464.63;;;-7.66;62.25
60087;BME280;45960;53.630;55.972;2024-01-07T03:19:31;99443.94;;;-7.75;62.41
60087;BME280;45960;53.630;55.972;2024-01-07T03:20:32;99459.41;;;-7.60;62.10
60087;BME280;45960;53.630;55.972;2024-01-07T03:21:33;99466.34;;;-7.60;62.24
60087;BME280;45960;53.630;55.972;2024-01-07T03:22:34;99471.53;;;-7.62;62.19
60087;BME280;45960;53.630;55.972;2024-01-07T03:23:36;99467.22;;;-7.66;62.37
60087;BME280;45960;53.630;55.972;2024-01-07T03:24:37;99474.13;;;-7.62;62.33
60087;BME280;45960;53.630;55.972;2024-01-07T03:25:38;99468.91;;;-7.59;62.27
60087;BME280;45960;53.630;55.972;2024-01-07T03:26:39;99462.00;;;-7.58;62.25
60087;BME280;45960;53.630;55.972;2024-01-07T03:27:40;99466.31;;;-7.59;62.10
60087;BME280;45960;53.630;55.972;2024-01-07T03:28:40;99462.00;;;-7.58;62.33
60087;BME280;45960;53.630;55.972;2024-01-07T03:29:42;99469.78;;;-7.57;62.09
60087;BME280;45960;53.630;55.972;2024-01-07T03:30:42;99466.31;;;-7.59;62.18
60087;BME280;45960;53.630;55.972;2024-01-07T03:31:43;99474.09;;;-7.57;62.24
60087;BME280;45960;53.630;55.972;2024-01-07T03:32:45;99475.84;;;-7.59;62.08
60087;BME280;45960;53.630;55.972;2024-01-07T03:33:46;99480.16;;;-7.60;62.13
60087;BME280;45960;53.630;55.972;2024-01-07T03:34:47;99481.88;;;-7.59;62.29
60087;BME280;45960;53.630;55.972;2024-01-07T03:35:48;99481.03;;;-7.59;62.12
60087;BME280;45960;53.630;55.972;2024-01-07T03:36:48;99486.22;;;-7.62;62.31
60087;BME280;45960;53.630;55.972;2024-01-07T03:37:50;99488.84;;;-7.64;62.29
60087;BME280;45960;53.630;55.972;2024-01-07T03:38:52;99490.56;;;-7.66;62.12
60087;BME280;45960;53.630;55.972;2024-01-07T03:40:24;99481.94;;;-7.71;62.22
60087;BME280;45960;53.630;55.972;2024-01-07T03:42:25;99481.94;;;-7.71;62.01
60087;BME280;45960;53.630;55.972;2024-01-07T03:43:26;99481.97;;;-7.74;62.03
60087;BME280;45960;53.630;55.972;2024-01-07T03:44:27;99488.88;;;-7.73;62.36
60087;BME280;45960;53.630;55.972;2024-01-07T03:45:28;99492.31;;;-7.71;62.14
60087;BME280;45960;53.630;55.972;2024-01-07T03:46:29;99492.31;;;-7.68;62.35
60087;BME280;45960;53.630;55.972;2024-01-07T03:47:30;99490.56;;;-7.66;62.35
60087;BME280;45960;53.630;55.972;2024-01-07T03:48:32;99476.75;;;-7.68;62.21
60087;BME280;45960;53.630;55.972;2024-01-07T03:49:33;99474.16;;;-7.68;62.29
60087;BME280;45960;53.630;55.972;2024-01-07T03:50:34;99473.31;;;-7.67;62.39
60087;BME280;45960;53.630;55.972;2024-01-07T03:51:35;99468.13;;;-7.67;62.40
60087;BME280;45960;53.630;55.972;2024-01-07T03:52:36;99466.34;;;-7.65;62.28
60087;BME280;45960;53.630;55.972;2024-01-07T03:53:37;99461.16;;;-7.65;62.27
60087;BME280;45960;53.630;55.972;2024-01-07T03:54:38;99462.91;;;-7.64;62.34
60087;BME280;45960;53.630;55.972;2024-01-07T03:55:39;99462.03;;;-7.65;62.19
60087;BME280;45960;53.630;55.972;2024-01-07T03:56:40;99433.56;;;-7.81;62.42
60087;BME280;45960;53.630;55.972;2024-01-07T03:57:41;99478.44;;;-7.58;62.43
60087;BME280;45960;53.630;55.972;2024-01-07T03:58:42;99483.59;;;-7.52;62.42
60087;BME280;45960;53.630;55.972;2024-01-07T03:59:43;99489.63;;;-7.47;62.28
60087;BME280;45960;53.630;55.972;2024-01-07T04:00:44;99492.19;;;-7.44;62.32
60087;BME280;45960;53.630;55.972;2024-01-07T04:01:45;99493.88;;;-7.39;62.27
60087;BME280;45960;53.630;55.972;2024-01-07T04:02:47;99493.88;;;-7.39;62.15
60087;BME280;45960;53.630;55.972;2024-01-07T04:03:48;99480.94;;;-7.38;62.23
60087;BME280;45960;53.630;55.972;2024-01-07T04:04:48;99477.47;;;-7.38;62.07
60087;BME280;45960;53.630;55.972;2024-01-07T04:05:49;99483.53;;;-7.43;62.18
60087;BME280;45960;53.630;55.972;2024-01-07T04:06:50;99490.47;;;-7.43;62.37
60087;BME280;45960;53.630;55.972;2024-01-07T04:07:51;99493.91;;;-7.43;62.06
60087;BME280;45960;53.630;55.972;2024-01-07T04:08:53;99502.56;;;-7.44;62.41
60087;BME280;45960;53.630;55.972;2024-01-07T04:09:56;99499.09;;;-7.43;62.13
60087;BME280;45960;53.630;55.972;2024-01-07T04:10:57;99498.25;;;-7.41;62.14
60087;BME280;45960;53.630;55.972;2024-01-07T04:11:58;99464.59;;;-7.60;62.45
60087;BME280;45960;53.630;55.972;2024-01-07T04:12:59;99491.31;;;-7.41;62.13
60087;BME280;45960;53.630;55.972;2024-01-07T04:14:00;99485.25;;;-7.38;62.24
60087;BME280;45960;53.630;55.972;2024-01-07T04:15:01;99486.09;;;-7.39;62.16
60087;BME280;45960;53.630;55.972;2024-01-07T04:16:02;99492.16;;;-7.37;62.36
60087;BME280;45960;53.630;55.972;2024-01-07T04:17:03;99500.81;;;-7.35;62.33
60087;BME280;45960;53.630;55.972;2024-01-07T04:18:04;99488.69;;;-7.33;62.30
60087;BME280;45960;53.630;55.972;2024-01-07T04:19:06;99485.16;;;-7.26;62.24
60087;BME280;45960;53.630;55.972;2024-01-07T04:20:08;99421.41;;;-7.64;62.00
60087;BME280;45960;53.630;55.972;2024-01-07T04:21:09;99477.38;;;-7.26;62.25
60087;BME280;45960;53.630;55.972;2024-01-07T04:22:13;99464.47;;;-7.35;62.11
60087;BME280;45960;53.630;55.972;2024-01-07T04:23:17;99490.38;;;-7.26;62.09
60087;BME280;45960;53.630;55.972;2024-01-07T04:24:19;99482.59;;;-7.28;62.13
60087;BME280;45960;53.630;55.972;2024-01-07T04:25:20;99483.47;;;-7.27;62.14
60087;BME280;45960;53.630;55.972;2024-01-07T04:26:21;99485.16;;;-7.23;61.89
60087;BME280;45960;53.630;55.972;2024-01-07T04:27:22;99485.13;;;-7.20;62.13
60087;BME280;45960;53.630;55.972;2024-01-07T04:28:22;99488.59;;;-7.18;61.88
60087;BME280;45960;53.630;55.972;2024-01-07T04:29:24;99491.19;;;-7.16;62.02
60087;BME280;45960;53.630;55.972;2024-01-07T04:30:25;99492.91;;;-7.15;62.02
60087;BME280;45960;53.630;55.972;2024-01-07T04:31:26;99493.81;;;-7.21;61.96
60087;BME280;45960;53.630;55.972;2024-01-07T04:32:33;99492.13;;;-7.25;61.82
60087;BME280;45960;53.630;55.972;2024-01-07T04:33:47;99486.03;;;-7.26;61.74
60087;BME280;45960;53.630;55.972;2024-01-07T04:34:48;99474.84;;;-7.32;61.90
60087;BME280;45960;53.630;55.972;2024-01-07T04:35:49;99478.25;;;-7.24;61.91
60087;BME280;45960;53.630;55.972;2024-01-07T04:36:50;99429.16;;;-7.58;62.02
60087;BME280;45960;53.630;55.972;2024-01-07T04:37:51;99486.88;;;-7.19;62.16
60087;BME280;45960;53.630;55.972;2024-01-07T04:38:53;99475.63;;;-7.23;61.87
60087;BME280;45960;53.630;55.972;2024-01-07T04:39:55;99468.72;;;-7.24;61.97
60087;BME280;45960;53.630;55.972;2024-01-07T04:40:56;99463.56;;;-7.30;62.05
60087;BME280;45960;53.630;55.972;2024-01-07T04:41:57;99471.31;;;-7.19;62.11
60087;BME280;45960;53.630;55.972;2024-01-07T04:42:58;99454.94;;;-7.30;61.96
60087;BME280;45960;53.630;55.972;2024-01-07T04:43:59;99485.09;;;-7.17;61.94
60087;BME280;45960;53.630;55.972;2024-01-07T04:45:00;99486.81;;;-7.14;61.83
60087;BME280;45960;53.630;55.972;2024-01-07T04:46:05;99488.53;;;-7.12;61.76
60087;BME280;45960;53.630;55.972;2024-01-07T04:47:30;99479.03;;;-7.10;61.87
60087;BME280;45960;53.630;55.972;2024-01-07T04:48:41;99482.47;;;-7.09;61.80
60087;BME280;45960;53.630;55.972;2024-01-07T04:49:43;99472.97;;;-7.12;61.76
60087;BME280;45960;53.630;55.972;2024-01-07T04:50:44;99484.22;;;-7.10;61.77
60087;BME280;45960;53.630;55.972;2024-01-07T04:51:45;99467.78;;;-7.15;61.78
60087;BME280;45960;53.630;55.972;2024-01-07T04:52:47;99477.28;;;-7.08;61.72
60087;BME280;45960;53.630;55.972;2024-01-07T04:53:53;99477.25;;;-7.06;62.02
60087;BME280;45960;53.630;55.972;2024-01-07T04:54:56;99469.53;;;-7.11;61.76
60087;BME280;45960;53.630;55.972;2024-01-07T04:55:59;99486.78;;;-7.05;61.67
60087;BME280;45960;53.630;55.972;2024-01-07T04:57:02;99474.72;;;-7.14;61.81
60087;BME280;45960;53.630;55.972;2024-01-07T04:58:04;99489.41;;;-7.08;61.83
60087;BME280;45960;53.630;55.972;2024-01-07T04:59:05;99486.81;;;-7.10;61.91
60087;BME280;45960;53.630;55.972;2024-01-07T05:00:09;99478.16;;;-7.12;61.79
60087;BME280;45960;53.630;55.972;2024-01-07T05:01:11;99474.72;;;-7.11;61.77
60087;BME280;45960;53.630;55.972;2024-01-07T05:02:12;99479.91;;;-7.11;61.78
60087;BME280;45960;53.630;55.972;2024-01-07T05:03:13;99483.31;;;-7.09;61.93
60087;BME280;45960;53.630;55.972;2024-01-07T05:04:14;99483.34;;;-7.12;61.70
60087;BME280;45960;53.630;55.972;2024-01-07T05:05:15;99488.53;;;-7.12;61.92
60087;BME280;45960;53.630;55.972;2024-01-07T05:06:16;99486.81;;;-7.11;61.82
60087;BME280;45960;53.630;55.972;2024-01-07T05:07:17;99481.63;;;-7.13;61.56
60087;BME280;45960;53.630;55.972;2024-01-07T05:08:18;99481.66;;;-7.16;61.73
60087;BME280;45960;53.630;55.972;2024-01-07T05:09:19;99467.81;;;-7.18;61.65
60087;BME280;45960;53.630;55.972;2024-01-07T05:10:20;99461.75;;;-7.17;61.84
60087;BME280;45960;53.630;55.972;2024-01-07T05:11:21;99460.03;;;-7.16;61.72
60087;BME280;45960;53.630;55.972;2024-01-07T05:12:22;99453.09;;;-7.16;61.71
60087;BME280;45960;53.630;55.972;2024-01-07T05:13:25;99452.25;;;-7.18;61.65
60087;BME280;45960;53.630;55.972;2024-01-07T05:14:27;99447.06;;;-7.18;61.87
60087;BME280;45960;53.630;55.972;2024-01-07T05:15:29;99464.34;;;-7.14;61.62
60087;BME280;45960;53.630;55.972;2024-01-07T05:16:30;99464.31;;;-7.11;61.86
60087;BME280;45960;53.630;55.972;2024-01-07T05:17:31;99464.31;;;-7.08;61.84
60087;BME280;45960;53.630;55.972;2024-01-07T05:18:31;99460.81;;;-7.07;61.75
60087;BME280;45960;53.630;55.972;2024-01-07T05:19:32;99459.09;;;-7.05;61.54
60087;BME280;45960;53.630;55.972;2024-01-07T05:20:33;99452.16;;;-7.06;61.68
60087;BME280;45960;53.630;55.972;2024-01-07T05:21:34;99458.22;;;-7.07;61.44
60087;BME280;45960;53.630;55.972;2024-01-07T05:22:36;99466.03;;;-7.10;61.54
60087;BME280;45960;53.630;55.972;2024-01-07T05:23:39;99476.47;;;-7.16;61.35